createdAt,value
2023-02-17T00:01:30.652Z,101943.63
2023-02-17T00:03:58.308Z,101942.09
2023-02-17T00:06:28.972Z,101937.69
2023-02-17T00:08:56.822Z,101938.41
2023-02-17T00:11:24.114Z,101931.09
2023-02-17T00:13:53.971Z,101912.88
2023-02-17T00:16:26.059Z,101932.00
2023-02-17T00:18:56.022Z,101930.31
2023-02-17T00:21:26.444Z,101917.84
2023-02-17T00:23:54.313Z,101913.53
2023-02-17T00:26:22.244Z,101915.53
2023-02-17T00:28:50.671Z,101910.16
2023-02-17T00:31:21.419Z,101906.41
2023-02-17T00:33:49.000Z,101918.19
2023-02-17T00:36:19.805Z,101926.72
2023-02-17T00:38:48.721Z,101909.38
2023-02-17T00:41:17.645Z,101917.53
2023-02-17T00:43:45.246Z,101914.28
2023-02-17T00:46:12.407Z,101920.03
2023-02-17T00:48:39.717Z,101920.13
2023-02-17T00:51:07.075Z,101918.69
2023-02-17T00:53:34.181Z,101920.09
2023-02-17T00:56:01.402Z,101908.97
2023-02-17T00:58:28.631Z,101906.53
2023-02-17T01:00:57.934Z,101915.84
2023-02-17T01:03:25.934Z,101924.09
2023-02-17T01:05:54.795Z,101915.22
2023-02-17T01:08:23.147Z,101900.94
2023-02-17T01:10:51.441Z,101899.84
2023-02-17T01:13:19.923Z,101901.75
2023-02-17T01:15:53.191Z,101903.63
2023-02-17T01:18:23.444Z,101896.00
2023-02-17T01:20:50.942Z,101896.09
2023-02-17T01:23:17.979Z,101895.63
2023-02-17T01:25:47.313Z,101903.97
2023-02-17T01:28:20.865Z,101889.59
2023-02-17T01:30:49.007Z,101882.00
2023-02-17T01:33:16.236Z,101891.28
2023-02-17T01:35:43.414Z,101887.66
2023-02-17T01:38:10.423Z,101892.63
2023-02-17T01:40:48.255Z,101893.97
2023-02-17T01:43:18.160Z,101894.13
2023-02-17T01:46:07.046Z,101893.75
2023-02-17T01:48:40.856Z,101890.63
2023-02-17T01:51:29.438Z,101888.00
2023-02-17T01:54:08.919Z,101885.53
2023-02-17T01:56:41.232Z,101897.91
2023-02-17T01:59:15.985Z,101900.63
2023-02-17T02:01:43.486Z,101888.56
2023-02-17T02:04:11.644Z,101898.19
2023-02-17T02:06:43.127Z,101898.09
2023-02-17T02:09:27.367Z,101889.75
2023-02-17T02:11:54.299Z,101899.00
2023-02-17T02:14:22.616Z,101892.47
2023-02-17T02:17:39.789Z,101895.53
2023-02-17T02:20:37.609Z,101885.75
2023-02-17T02:23:16.672Z,101883.53
2023-02-17T02:26:18.554Z,101882.13
2023-02-17T02:28:54.668Z,101874.28
2023-02-17T02:32:02.807Z,101861.66
2023-02-17T02:34:51.890Z,101854.59
2023-02-17T02:37:27.825Z,101838.06
2023-02-17T02:39:56.720Z,101842.66
2023-02-17T02:42:25.482Z,101848.06
2023-02-17T02:44:52.476Z,101842.19
2023-02-17T02:47:49.588Z,101840.56
2023-02-17T02:50:40.898Z,101836.19
2023-02-17T02:53:36.361Z,101831.63
2023-02-17T02:56:34.332Z,101844.19
2023-02-17T02:59:46.059Z,101842.19
2023-02-17T03:02:45.793Z,101841.94
2023-02-17T03:06:09.179Z,101849.00
2023-02-17T03:08:49.690Z,101852.72
2023-02-17T03:11:32.314Z,101854.50
2023-02-17T03:14:05.676Z,101855.78
2023-02-17T03:16:35.636Z,101874.06
2023-02-17T03:19:02.840Z,101854.59
2023-02-17T03:21:58.169Z,101843.97
2023-02-17T03:24:25.830Z,101842.97
2023-02-17T03:26:53.381Z,101832.47
2023-02-17T03:29:20.480Z,101831.88
2023-02-17T03:31:48.630Z,101828.69
2023-02-17T03:34:15.713Z,101819.91
2023-02-17T03:36:42.761Z,101831.03
2023-02-17T03:39:09.733Z,101831.19
2023-02-17T03:41:36.788Z,101827.59
2023-02-17T03:44:04.059Z,101826.91
2023-02-17T03:46:31.151Z,101831.28
2023-02-17T03:48:58.136Z,101817.72
2023-02-17T03:51:26.079Z,101826.06
2023-02-17T03:53:53.622Z,101828.41
2023-02-17T03:56:21.016Z,101819.97
2023-02-17T03:58:48.400Z,101817.63
2023-02-17T04:01:15.810Z,101824.25
2023-02-17T04:03:43.200Z,101835.66
2023-02-17T04:06:11.300Z,101843.53
2023-02-17T04:08:39.763Z,101840.63
2023-02-17T04:11:09.205Z,101839.47
2023-02-17T04:13:37.750Z,101839.75
2023-02-17T04:16:07.008Z,101837.50
2023-02-17T04:18:34.633Z,101850.91
2023-02-17T04:21:01.660Z,101840.47
2023-02-17T04:23:28.905Z,101847.75
2023-02-17T04:25:55.970Z,101844.19
2023-02-17T04:28:23.307Z,101850.34
2023-02-17T04:30:51.492Z,101850.94
2023-02-17T04:33:19.040Z,101858.47
2023-02-17T04:35:47.960Z,101856.28
2023-02-17T04:38:15.171Z,101854.69
2023-02-17T04:40:43.214Z,101845.84
2023-02-17T04:43:11.207Z,101863.19
2023-02-17T04:45:38.907Z,101859.19
2023-02-17T04:48:06.152Z,101870.66
2023-02-17T04:50:33.189Z,101859.16
2023-02-17T04:53:00.225Z,101853.88
2023-02-17T04:55:27.416Z,101848.19
2023-02-17T04:57:54.370Z,101868.69
2023-02-17T05:00:21.888Z,101867.25
2023-02-17T05:02:48.857Z,101855.25
2023-02-17T05:05:16.395Z,101872.13
2023-02-17T05:07:43.663Z,101871.25
2023-02-17T05:10:11.349Z,101867.88
2023-02-17T05:12:40.234Z,101869.00
2023-02-17T05:15:08.562Z,101873.63
2023-02-17T05:17:35.923Z,101868.41
2023-02-17T05:20:04.640Z,101857.91
2023-02-17T05:22:31.942Z,101861.28
2023-02-17T05:29:08.482Z,101855.28
2023-02-17T05:31:35.791Z,101850.78
2023-02-17T05:34:02.934Z,101856.50
2023-02-17T05:36:30.043Z,101854.88
2023-02-17T05:39:15.848Z,101867.91
2023-02-17T05:41:42.806Z,101857.50
2023-02-17T05:44:10.209Z,101862.22
2023-02-17T05:46:37.167Z,101853.75
2023-02-17T05:49:04.233Z,101855.66
2023-02-17T05:51:31.286Z,101839.75
2023-02-17T05:53:58.302Z,101856.19
2023-02-17T05:56:25.644Z,101839.72
2023-02-17T05:58:52.707Z,101857.16
2023-02-17T06:01:20.063Z,101842.63
2023-02-17T06:03:47.106Z,101848.88
2023-02-17T06:06:14.147Z,101849.94
2023-02-17T06:08:41.201Z,101850.03
2023-02-17T06:11:08.141Z,101849.06
2023-02-17T06:13:35.154Z,101857.00
2023-02-17T06:16:04.797Z,101855.41
2023-02-17T06:18:31.993Z,101849.09
2023-02-17T06:20:59.706Z,101860.91
2023-02-17T06:23:27.874Z,101844.06
2023-02-17T06:25:55.296Z,101841.81
2023-02-17T06:28:22.242Z,101846.09
2023-02-17T06:30:49.310Z,101844.63
2023-02-17T06:33:16.629Z,101850.09
2023-02-17T06:35:48.322Z,101858.25
2023-02-17T06:38:15.299Z,101846.59
2023-02-17T06:40:42.306Z,101860.38
2023-02-17T06:43:09.474Z,101864.59
2023-02-17T06:45:36.601Z,101866.38
2023-02-17T06:48:03.773Z,101860.88
2023-02-17T06:50:31.967Z,101859.00
2023-02-17T06:52:58.985Z,101853.16
2023-02-17T06:55:26.040Z,101865.03
2023-02-17T06:57:53.027Z,101862.66
2023-02-17T07:00:21.136Z,101862.38
2023-02-17T07:02:48.515Z,101861.75
2023-02-17T07:05:15.613Z,101859.78
2023-02-17T07:07:43.633Z,101844.22
2023-02-17T07:10:11.254Z,101860.34
2023-02-17T07:12:38.322Z,101852.47
2023-02-17T07:15:06.143Z,101851.50
2023-02-17T07:17:43.518Z,101852.47
2023-02-17T07:20:11.358Z,101864.34
2023-02-17T07:22:38.437Z,101856.97
2023-02-17T07:25:06.721Z,101861.03
2023-02-17T07:27:36.816Z,101850.53
2023-02-17T07:30:05.712Z,101850.91
2023-02-17T07:33:10.108Z,101860.88
2023-02-17T07:35:45.551Z,101851.78
2023-02-17T07:38:13.094Z,101852.06
2023-02-17T07:40:40.491Z,101849.22
2023-02-17T07:43:07.471Z,101844.13
2023-02-17T07:45:34.546Z,101844.22
2023-02-17T07:48:02.378Z,101853.09
2023-02-17T07:50:29.314Z,101861.34
2023-02-17T07:52:56.434Z,101871.94
2023-02-17T07:55:24.335Z,101862.34
2023-02-17T07:57:51.351Z,101870.38
2023-02-17T08:00:18.894Z,101872.50
2023-02-17T08:02:46.043Z,101872.06
2023-02-17T08:05:13.146Z,101877.41
2023-02-17T08:07:40.109Z,101883.72
2023-02-17T08:10:26.208Z,101873.78
2023-02-17T08:13:11.690Z,101874.03
2023-02-17T08:15:38.660Z,101871.25
2023-02-17T08:18:06.566Z,101862.28
2023-02-17T08:20:35.229Z,101851.47
2023-02-17T08:23:03.670Z,101844.03
2023-02-17T08:25:35.567Z,101866.25
2023-02-17T08:28:04.925Z,101874.34
2023-02-17T08:30:35.896Z,101856.66
2023-02-17T08:33:02.889Z,101871.63
2023-02-17T08:35:29.943Z,101873.00
2023-02-17T08:37:57.106Z,101879.38
2023-02-17T08:40:24.664Z,101868.69
2023-02-17T08:42:51.810Z,101867.44
2023-02-17T08:45:19.066Z,101872.94
2023-02-17T08:47:46.199Z,101873.84
2023-02-17T08:50:16.518Z,101866.44
2023-02-17T08:52:43.472Z,101868.59
2023-02-17T08:55:10.505Z,101876.00
2023-02-17T08:57:37.457Z,101863.50
2023-02-17T09:00:08.402Z,101887.63
2023-02-17T09:02:47.244Z,101887.94
2023-02-17T09:05:15.581Z,101873.69
2023-02-17T09:07:48.549Z,101883.22
2023-02-17T09:10:15.691Z,101890.97
2023-02-17T09:12:42.831Z,101881.72
2023-02-17T09:15:10.014Z,101883.81
2023-02-17T09:17:41.803Z,101880.13
2023-02-17T09:20:23.967Z,101890.81
2023-02-17T09:22:52.350Z,101904.69
2023-02-17T09:25:19.641Z,101912.31
2023-02-17T09:27:46.740Z,101906.03
2023-02-17T09:30:14.214Z,101917.31
2023-02-17T09:32:54.384Z,101919.50
2023-02-17T09:35:21.533Z,101909.00
2023-02-17T09:38:20.706Z,101916.47
2023-02-17T09:40:50.948Z,101908.91
2023-02-17T09:43:28.792Z,101923.78
2023-02-17T09:46:05.703Z,101928.50
2023-02-17T09:48:34.189Z,101929.06
2023-02-17T09:51:35.185Z,101927.63
2023-02-17T09:54:20.407Z,101927.03
2023-02-17T09:56:50.953Z,101921.25
2023-02-17T09:59:32.669Z,101925.56
2023-02-17T10:02:01.080Z,101925.44
2023-02-17T10:04:41.701Z,101932.53
2023-02-17T10:07:30.749Z,101938.72
2023-02-17T10:10:28.411Z,101933.81
2023-02-17T10:13:05.784Z,101959.09
2023-02-17T10:15:40.979Z,101951.38
2023-02-17T10:18:25.410Z,101955.06
2023-02-17T10:21:00.893Z,101958.41
2023-02-17T10:23:29.462Z,101954.09
2023-02-17T10:26:35.743Z,101980.22
2023-02-17T10:29:49.159Z,101973.59
2023-02-17T10:32:27.791Z,101978.16
2023-02-17T10:35:17.201Z,101976.25
2023-02-17T10:37:49.714Z,101985.53
2023-02-17T10:40:26.050Z,101983.50
2023-02-17T10:43:06.312Z,101987.72
2023-02-17T10:45:38.316Z,101989.78
2023-02-17T10:48:54.748Z,101997.50
2023-02-17T10:51:30.927Z,102002.28
2023-02-17T10:54:06.499Z,102016.97
2023-02-17T10:56:44.823Z,102015.31
2023-02-17T10:59:43.575Z,102027.75
2023-02-17T11:02:38.036Z,102045.44
2023-02-17T11:05:06.154Z,102037.50
2023-02-17T11:07:41.846Z,102037.56
2023-02-17T11:10:36.763Z,102034.00
2023-02-17T11:13:28.604Z,102042.00
2023-02-17T11:15:56.181Z,102022.66
2023-02-17T11:18:30.859Z,102021.16
2023-02-17T11:21:08.716Z,102039.25
2023-02-17T11:23:52.085Z,102023.22
2023-02-17T11:26:26.240Z,102021.69
2023-02-17T11:28:53.676Z,102036.75
2023-02-17T11:31:28.216Z,102026.66
2023-02-17T11:33:57.033Z,102036.66
2023-02-17T11:36:32.672Z,102022.72
2023-02-17T11:39:00.913Z,102030.22
2023-02-17T11:41:27.848Z,102022.47
2023-02-17T11:44:00.069Z,102026.06
2023-02-17T11:47:06.180Z,102027.56
2023-02-17T11:50:09.776Z,102046.81
2023-02-17T11:52:48.555Z,102050.06
2023-02-17T11:55:23.068Z,102052.59
2023-02-17T11:58:26.307Z,102039.28
2023-02-17T12:01:28.934Z,102027.94
2023-02-17T12:04:23.932Z,102017.47
2023-02-17T12:07:23.478Z,102022.94
2023-02-17T12:10:48.009Z,102030.34
2023-02-17T12:13:35.646Z,102005.34
2023-02-17T12:16:21.178Z,102016.44
2023-02-17T12:19:08.406Z,102006.47
2023-02-17T12:21:52.685Z,102014.81
2023-02-17T12:24:34.655Z,102015.88
2023-02-17T12:27:24.539Z,102018.16
2023-02-17T12:30:15.229Z,102007.09
2023-02-17T12:33:17.614Z,102024.53
2023-02-17T12:35:54.707Z,102025.41
2023-02-17T12:38:30.511Z,102012.59
2023-02-17T12:41:15.699Z,102030.38
2023-02-17T12:44:29.222Z,102044.41
2023-02-17T12:47:12.068Z,102027.69
2023-02-17T12:49:55.932Z,102030.31
2023-02-17T12:52:39.300Z,102014.91
2023-02-17T12:55:22.484Z,102016.38
2023-02-17T12:57:56.163Z,102003.91
2023-02-17T13:00:29.726Z,102000.06
2023-02-17T13:03:01.144Z,102012.31
2023-02-17T13:06:03.129Z,101993.47
2023-02-17T13:08:43.762Z,102000.28
2023-02-17T13:11:35.785Z,102010.50
2023-02-17T13:14:40.389Z,101997.16
2023-02-17T13:17:31.861Z,102005.22
2023-02-17T13:20:27.263Z,102011.25
2023-02-17T13:23:07.076Z,102008.75
2023-02-17T13:25:37.714Z,102007.72
2023-02-17T13:28:34.520Z,102008.34
2023-02-17T13:31:21.863Z,102016.16
2023-02-17T13:33:58.345Z,102025.41
2023-02-17T13:36:28.232Z,102027.16
2023-02-17T13:39:28.331Z,102030.41
2023-02-17T13:42:00.553Z,102013.50
2023-02-17T13:44:41.960Z,102007.50
2023-02-17T13:47:29.205Z,102006.09
2023-02-17T13:49:57.276Z,102005.41
2023-02-17T13:52:28.820Z,102001.94
2023-02-17T13:55:06.036Z,102003.59
2023-02-17T13:57:36.091Z,102018.88
2023-02-17T14:00:23.142Z,102011.28
2023-02-17T14:02:56.334Z,102009.06
2023-02-17T14:05:32.232Z,102016.88
2023-02-17T14:08:06.646Z,102012.84
2023-02-17T14:10:34.029Z,102014.28
2023-02-17T14:13:01.068Z,102009.19
2023-02-17T14:15:29.719Z,102025.03
2023-02-17T14:17:57.304Z,102014.59
2023-02-17T14:20:25.851Z,102024.34
2023-02-17T14:23:13.710Z,102029.31
2023-02-17T14:25:47.509Z,102036.63
2023-02-17T14:28:26.065Z,102048.00
2023-02-17T14:30:54.204Z,102052.03
2023-02-17T14:33:24.791Z,102063.53
2023-02-17T14:36:07.805Z,102071.22
2023-02-17T14:38:41.825Z,102077.88
2023-02-17T14:41:09.940Z,102086.41
2023-02-17T14:43:37.557Z,102095.22
2023-02-17T14:46:05.386Z,102096.31
2023-02-17T14:48:50.475Z,102069.16
2023-02-17T14:51:24.059Z,102071.59
2023-02-17T14:53:52.432Z,102081.47
2023-02-17T14:56:37.260Z,102085.44
2023-02-17T14:59:04.931Z,102068.78
2023-02-17T15:01:32.026Z,102089.53
2023-02-17T15:03:59.177Z,102088.97
2023-02-17T15:06:38.996Z,102080.31
2023-02-17T15:09:14.344Z,102093.75
2023-02-17T15:11:45.563Z,102089.63
2023-02-17T15:14:19.135Z,102083.53
2023-02-17T15:16:47.395Z,102086.28
2023-02-17T15:19:17.977Z,102083.16
2023-02-17T15:21:51.445Z,102097.81
2023-02-17T15:24:26.264Z,102092.28
2023-02-17T15:26:55.305Z,102112.78
2023-02-17T15:29:25.270Z,102126.06
2023-02-17T15:31:54.700Z,102121.41
2023-02-17T15:34:31.760Z,102138.66
2023-02-17T15:36:59.786Z,102138.19
2023-02-17T15:39:26.885Z,102145.41
2023-02-17T15:41:55.974Z,102138.63
2023-02-17T15:44:43.220Z,102121.91
2023-02-17T15:47:20.494Z,102119.16
2023-02-17T15:49:47.802Z,102122.72
2023-02-17T15:52:15.528Z,102124.19
2023-02-17T15:54:43.599Z,102128.22
2023-02-17T15:57:29.098Z,102142.56
2023-02-17T15:59:56.281Z,102144.91
2023-02-17T16:02:25.236Z,102139.69
2023-02-17T16:04:52.180Z,102154.72
2023-02-17T16:07:20.241Z,102138.09
2023-02-17T16:09:47.278Z,102150.00
2023-02-17T16:12:26.889Z,102149.31
2023-02-17T16:14:55.406Z,102167.66
2023-02-17T16:17:22.693Z,102156.13
2023-02-17T16:19:49.656Z,102166.19
2023-02-17T16:22:16.793Z,102165.41
2023-02-17T16:24:43.933Z,102163.56
2023-02-17T16:27:16.065Z,102173.66
2023-02-17T16:29:43.481Z,102171.19
2023-02-17T16:32:12.895Z,102172.78
2023-02-17T16:34:40.639Z,102167.38
2023-02-17T16:37:15.570Z,102173.41
2023-02-17T16:39:43.493Z,102166.91
2023-02-17T16:42:12.292Z,102173.28
2023-02-17T16:44:39.265Z,102175.41
2023-02-17T16:47:11.073Z,102181.41
2023-02-17T16:49:40.667Z,102170.09
2023-02-17T16:52:26.272Z,102163.63
2023-02-17T16:55:00.568Z,102175.66
2023-02-17T16:57:27.576Z,102185.25
2023-02-17T16:59:55.949Z,102190.47
2023-02-17T17:02:22.874Z,102207.22
2023-02-17T17:04:49.915Z,102220.25
2023-02-17T17:07:16.944Z,102208.19
2023-02-17T17:09:48.791Z,102213.50
2023-02-17T17:12:23.135Z,102197.09
2023-02-17T17:14:50.108Z,102192.59
2023-02-17T17:17:17.084Z,102190.72
2023-02-17T17:19:44.072Z,102181.50
2023-02-17T17:22:12.020Z,102194.44
2023-02-17T17:24:38.990Z,102197.09
2023-02-17T17:27:06.595Z,102204.09
2023-02-17T17:29:33.561Z,102219.50
2023-02-17T17:32:00.684Z,102222.69
2023-02-17T17:34:27.781Z,102224.84
2023-02-17T17:36:54.762Z,102217.00
2023-02-17T17:39:23.547Z,102213.94
2023-02-17T17:41:51.740Z,102202.63
2023-02-17T17:44:20.583Z,102198.38
2023-02-17T17:46:47.934Z,102202.75
2023-02-17T17:49:17.948Z,102189.69
2023-02-17T17:51:45.094Z,102206.44
2023-02-17T17:54:12.408Z,102209.50
2023-02-17T17:56:42.997Z,102214.28
2023-02-17T17:59:12.591Z,102217.63
2023-02-17T18:01:39.706Z,102215.94
2023-02-17T18:04:08.878Z,102216.44
2023-02-17T18:06:40.642Z,102223.41
2023-02-17T18:09:17.089Z,102221.16
2023-02-17T18:11:52.378Z,102219.63
2023-02-17T18:14:20.179Z,102207.97
2023-02-17T18:16:49.069Z,102221.81
2023-02-17T18:19:18.516Z,102213.28
2023-02-17T18:21:46.929Z,102214.97
2023-02-17T18:24:14.387Z,102206.75
2023-02-17T18:26:41.430Z,102217.56
2023-02-17T18:29:08.443Z,102200.28
2023-02-17T18:31:35.659Z,102218.66
2023-02-17T18:34:03.473Z,102223.78
2023-02-17T18:36:30.610Z,102237.22
2023-02-17T18:38:57.561Z,102235.75
2023-02-17T18:41:31.602Z,102230.59
2023-02-17T18:44:01.474Z,102223.84
2023-02-17T18:46:29.313Z,102218.16
2023-02-17T18:48:57.233Z,102220.22
2023-02-17T18:51:27.869Z,102233.91
2023-02-17T18:53:57.680Z,102234.00
2023-02-17T18:56:28.949Z,102233.38
2023-02-17T18:58:57.212Z,102240.81
2023-02-17T19:01:34.699Z,102246.00
2023-02-17T19:04:02.042Z,102233.72
2023-02-17T19:06:34.518Z,102238.84
2023-02-17T19:09:04.566Z,102239.66
2023-02-17T19:11:33.287Z,102238.63
2023-02-17T19:14:03.290Z,102234.28
2023-02-17T19:16:32.457Z,102234.66
2023-02-17T19:19:00.262Z,102232.44
2023-02-17T19:21:27.518Z,102250.34
2023-02-17T19:23:54.549Z,102238.97
2023-02-17T19:26:22.344Z,102251.97
2023-02-17T19:28:49.886Z,102265.66
2023-02-17T19:31:19.848Z,102259.00
2023-02-17T19:33:47.557Z,102263.63
2023-02-17T19:36:21.156Z,102265.16
2023-02-17T19:38:49.408Z,102271.88
2023-02-17T19:41:19.233Z,102262.41
2023-02-17T19:43:46.597Z,102274.06
2023-02-17T19:46:18.281Z,102251.25
2023-02-17T19:48:45.809Z,102268.47
2023-02-17T19:51:14.022Z,102266.84
2023-02-17T19:53:45.059Z,102266.50
2023-02-17T19:56:18.159Z,102260.28
2023-02-17T19:58:46.729Z,102259.59
2023-02-17T20:01:19.985Z,102260.78
2023-02-17T20:03:47.335Z,102262.53
2023-02-17T20:06:21.568Z,102276.13
2023-02-17T20:08:58.206Z,102277.16
2023-02-17T20:11:26.496Z,102284.91
2023-02-17T20:13:54.027Z,102287.81
2023-02-17T20:16:21.083Z,102284.38
2023-02-17T20:18:50.154Z,102279.13
2023-02-17T20:21:24.529Z,102270.72
2023-02-17T20:23:52.614Z,102275.53
2023-02-17T20:26:27.632Z,102271.78
2023-02-17T20:28:56.008Z,102284.56
2023-02-17T20:31:23.914Z,102264.84
2023-02-17T20:33:51.808Z,102264.03
2023-02-17T20:36:19.174Z,102258.03
2023-02-17T20:38:46.170Z,102271.00
2023-02-17T20:41:17.919Z,102270.84
2023-02-17T20:43:45.532Z,102271.03
2023-02-17T20:46:23.326Z,102275.22
2023-02-17T20:48:51.360Z,102275.28
2023-02-17T20:51:18.700Z,102278.09
2023-02-17T20:53:46.512Z,102284.19
2023-02-17T20:56:19.762Z,102290.16
2023-02-17T20:58:47.192Z,102296.81
2023-02-17T21:01:14.519Z,102294.84
2023-02-17T21:03:41.676Z,102302.72
2023-02-17T21:06:27.298Z,102311.72
2023-02-17T21:08:59.199Z,102292.22
2023-02-17T21:11:26.964Z,102285.56
2023-02-17T21:13:54.468Z,102280.91
2023-02-17T21:16:25.800Z,102277.16
2023-02-17T21:18:54.078Z,102278.56
2023-02-17T21:21:21.071Z,102278.75
2023-02-17T21:23:48.440Z,102279.06
2023-02-17T21:26:16.589Z,102276.75
2023-02-17T21:28:47.112Z,102277.78
2023-02-17T21:31:15.628Z,102264.06
2023-02-17T21:33:43.841Z,102288.78
2023-02-17T21:36:17.252Z,102278.03
2023-02-17T21:38:45.501Z,102294.25
2023-02-17T21:41:24.940Z,102286.19
2023-02-17T21:44:10.631Z,102289.03
2023-02-17T21:46:37.672Z,102283.78
2023-02-17T21:49:05.084Z,102286.63
2023-02-17T21:51:32.496Z,102281.84
2023-02-17T21:53:59.468Z,102276.63
2023-02-17T21:56:26.864Z,102278.81
2023-02-17T21:58:55.473Z,102267.50
2023-02-17T22:01:25.962Z,102273.16
2023-02-17T22:03:53.771Z,102280.22
2023-02-17T22:06:25.412Z,102271.13
2023-02-17T22:08:52.885Z,102267.94
2023-02-17T22:11:34.542Z,102264.88
2023-02-17T22:14:05.937Z,102261.56
2023-02-17T22:16:35.917Z,102261.97
2023-02-17T22:19:05.295Z,102260.03
2023-02-17T22:21:32.679Z,102262.66
2023-02-17T22:24:01.038Z,102262.91
2023-02-17T22:26:28.935Z,102264.53
2023-02-17T22:28:56.593Z,102260.63
2023-02-17T22:31:35.768Z,102251.09
2023-02-17T22:34:18.156Z,102261.41
2023-02-17T22:36:45.065Z,102282.16
2023-02-17T22:39:12.079Z,102259.78
2023-02-17T22:41:39.891Z,102263.59
2023-02-17T22:44:08.347Z,102263.03
2023-02-17T22:46:35.485Z,102273.44
2023-02-17T22:49:02.834Z,102257.34
2023-02-17T22:51:34.994Z,102271.56
2023-02-17T22:54:03.456Z,102262.03
2023-02-17T22:56:31.044Z,102250.25
2023-02-17T22:59:00.969Z,102243.88
2023-02-17T23:01:30.450Z,102244.34
2023-02-17T23:03:57.428Z,102244.88
2023-02-17T23:06:30.560Z,102247.19
2023-02-17T23:08:59.166Z,102260.47
2023-02-17T23:11:57.591Z,102257.88
2023-02-17T23:14:32.445Z,102254.94
2023-02-17T23:17:06.641Z,102250.69
2023-02-17T23:19:34.277Z,102256.91
2023-02-17T23:22:06.706Z,102254.06
2023-02-17T23:24:33.705Z,102255.47
2023-02-17T23:27:01.644Z,102261.78
2023-02-17T23:29:30.786Z,102253.53
2023-02-17T23:31:58.980Z,102237.19
2023-02-17T23:34:26.919Z,102232.88
2023-02-17T23:36:54.284Z,102229.50
2023-02-17T23:39:21.301Z,102221.28
2023-02-17T23:41:48.236Z,102223.66
2023-02-17T23:44:16.349Z,102219.44
2023-02-17T23:46:45.027Z,102213.56
2023-02-17T23:49:17.663Z,102212.13
2023-02-17T23:51:46.810Z,102223.72
2023-02-17T23:54:15.184Z,102235.56
2023-02-17T23:56:42.682Z,102227.03
2023-02-17T23:59:10.047Z,102214.84
